createdAt,value
2022-11-14T00:01:21.404Z,5.70
2022-11-14T00:03:51.388Z,5.70
2022-11-14T00:06:21.403Z,5.70
2022-11-14T00:08:49.395Z,5.70
2022-11-14T00:11:17.402Z,5.70
2022-11-14T00:13:46.387Z,5.70
2022-11-14T00:16:14.412Z,5.80
2022-11-14T00:18:42.794Z,5.80
2022-11-14T00:21:10.832Z,5.70
2022-11-14T00:23:40.204Z,5.80
2022-11-14T00:26:08.469Z,5.80
2022-11-14T00:28:36.515Z,5.70
2022-11-14T00:31:04.466Z,5.80
2022-11-14T00:33:32.464Z,5.80
2022-11-14T00:36:00.584Z,5.80
2022-11-14T00:38:28.955Z,5.80
2022-11-14T00:40:58.582Z,5.80
2022-11-14T00:43:26.558Z,5.80
2022-11-14T00:45:54.660Z,5.70
2022-11-14T00:48:22.848Z,5.70
2022-11-14T00:50:50.869Z,5.70
2022-11-14T00:53:18.854Z,5.70
2022-11-14T00:55:46.872Z,5.70
2022-11-14T00:58:16.269Z,5.70
2022-11-14T01:00:44.301Z,5.70
2022-11-14T01:03:12.363Z,5.70
2022-11-14T01:05:45.363Z,5.60
2022-11-14T01:08:15.073Z,5.60
2022-11-14T01:10:44.233Z,5.60
2022-11-14T01:13:13.947Z,5.70
2022-11-14T01:15:45.633Z,5.60
2022-11-14T01:18:16.939Z,5.50
2022-11-14T01:20:46.988Z,5.50
2022-11-14T01:23:16.995Z,5.60
2022-11-14T01:25:45.392Z,5.50
2022-11-14T01:28:15.336Z,5.50
2022-11-14T01:30:44.933Z,5.50
2022-11-14T01:33:13.277Z,5.50
2022-11-14T01:35:42.106Z,5.60
2022-11-14T01:38:14.654Z,5.60
2022-11-14T01:40:44.126Z,5.60
2022-11-14T01:43:30.143Z,5.60
2022-11-14T01:46:02.117Z,5.60
2022-11-14T01:48:36.897Z,5.60
2022-11-14T01:51:16.126Z,5.60
2022-11-14T01:53:45.544Z,5.60
2022-11-14T01:56:17.446Z,5.60
2022-11-14T01:58:48.147Z,5.50
2022-11-14T02:01:17.600Z,5.50
2022-11-14T02:03:49.331Z,5.50
2022-11-14T02:06:20.564Z,5.50
2022-11-14T02:08:50.242Z,5.50
2022-11-14T02:11:18.459Z,5.50
2022-11-14T02:13:47.240Z,5.50
2022-11-14T02:16:17.296Z,5.50
2022-11-14T02:18:45.681Z,5.50
2022-11-14T02:21:15.671Z,5.50
2022-11-14T02:23:43.787Z,5.50
2022-11-14T02:26:11.864Z,5.50
2022-11-14T02:28:39.916Z,5.50
2022-11-14T02:31:07.947Z,5.50
2022-11-14T02:33:35.976Z,5.50
2022-11-14T02:36:04.032Z,5.50
2022-11-14T02:38:33.412Z,5.50
2022-11-14T02:41:01.825Z,5.50
2022-11-14T02:43:30.174Z,5.50
2022-11-14T02:46:02.795Z,5.50
2022-11-14T02:48:33.372Z,5.50
2022-11-14T02:51:01.522Z,5.50
2022-11-14T02:53:29.534Z,5.50
2022-11-14T02:55:58.976Z,5.50
2022-11-14T02:58:27.166Z,5.40
2022-11-14T03:01:19.086Z,5.50
2022-11-14T03:03:43.376Z,5.40
2022-11-14T03:06:11.404Z,5.50
2022-11-14T03:08:39.396Z,5.50
2022-11-14T03:11:10.434Z,5.50
2022-11-14T03:13:38.466Z,5.50
2022-11-14T03:16:08.304Z,5.50
2022-11-14T03:18:36.919Z,5.50
2022-11-14T03:21:08.631Z,5.50
2022-11-14T03:23:36.823Z,5.50
2022-11-14T03:26:07.053Z,5.50
2022-11-14T03:28:36.876Z,5.50
2022-11-14T03:31:05.527Z,5.50
2022-11-14T03:33:34.076Z,5.50
2022-11-14T03:36:02.859Z,5.50
2022-11-14T03:38:31.454Z,5.50
2022-11-14T03:41:00.652Z,5.50
2022-11-14T03:43:33.081Z,5.40
2022-11-14T03:46:04.067Z,5.40
2022-11-14T03:48:33.021Z,5.40
2022-11-14T03:51:01.207Z,5.40
2022-11-14T03:53:29.330Z,5.40
2022-11-14T03:55:57.322Z,5.40
2022-11-14T03:58:25.371Z,5.50
2022-11-14T04:00:53.420Z,5.50
2022-11-14T04:03:22.881Z,5.50
2022-11-14T04:05:51.424Z,5.50
2022-11-14T04:08:19.462Z,5.50
2022-11-14T04:10:48.674Z,5.50
2022-11-14T04:13:17.019Z,5.50
2022-11-14T04:15:45.054Z,5.60
2022-11-14T04:18:13.178Z,5.60
2022-11-14T04:20:42.590Z,5.60
2022-11-14T04:23:10.574Z,5.60
2022-11-14T04:25:38.551Z,5.50
2022-11-14T04:28:06.564Z,5.50
2022-11-14T04:30:34.947Z,5.50
2022-11-14T04:33:03.099Z,5.40
2022-11-14T04:35:31.106Z,5.40
2022-11-14T04:38:00.494Z,5.50
2022-11-14T04:40:28.490Z,5.50
2022-11-14T04:42:56.574Z,5.40
2022-11-14T04:45:24.681Z,5.40
2022-11-14T04:47:52.784Z,5.40
2022-11-14T04:50:20.852Z,5.50
2022-11-14T04:52:52.040Z,5.50
2022-11-14T04:55:21.428Z,5.50
2022-11-14T04:57:54.081Z,5.50
2022-11-14T05:00:22.449Z,5.40
2022-11-14T05:02:50.488Z,5.50
2022-11-14T05:05:18.796Z,5.50
2022-11-14T05:07:46.776Z,5.50
2022-11-14T05:10:15.204Z,5.50
2022-11-14T05:12:44.581Z,5.50
2022-11-14T05:15:12.617Z,5.50
2022-11-14T05:17:40.606Z,5.40
2022-11-14T05:20:09.502Z,5.50
2022-11-14T05:22:37.476Z,5.50
2022-11-14T05:25:06.019Z,5.50
2022-11-14T05:27:34.081Z,5.40
2022-11-14T05:30:03.467Z,5.40
2022-11-14T05:32:31.427Z,5.40
2022-11-14T05:34:59.421Z,5.40
2022-11-14T05:37:27.410Z,5.50
2022-11-14T05:39:55.415Z,5.50
2022-11-14T05:42:23.424Z,5.50
2022-11-14T05:44:51.606Z,5.50
2022-11-14T05:47:21.105Z,5.40
2022-11-14T05:49:48.951Z,5.40
2022-11-14T05:52:16.939Z,5.50
2022-11-14T05:54:44.907Z,5.50
2022-11-14T05:57:13.164Z,5.40
2022-11-14T05:59:41.145Z,5.40
2022-11-14T06:02:09.231Z,5.40
2022-11-14T06:04:38.828Z,5.40
2022-11-14T06:07:06.866Z,5.40
2022-11-14T06:09:34.918Z,5.40
2022-11-14T06:12:06.048Z,5.50
2022-11-14T06:14:34.057Z,5.40
2022-11-14T06:17:02.223Z,5.50
2022-11-14T06:19:30.248Z,5.50
2022-11-14T06:21:59.598Z,5.50
2022-11-14T06:24:27.580Z,5.50
2022-11-14T06:26:55.536Z,5.50
2022-11-14T06:29:23.534Z,5.50
2022-11-14T06:31:51.543Z,5.50
2022-11-14T06:34:19.528Z,5.50
2022-11-14T06:36:47.532Z,5.50
2022-11-14T06:39:16.864Z,5.50
2022-11-14T06:41:44.879Z,5.50
2022-11-14T06:44:14.946Z,5.60
2022-11-14T06:46:42.912Z,5.50
2022-11-14T06:49:10.962Z,5.50
2022-11-14T06:51:38.976Z,5.50
2022-11-14T06:54:07.059Z,5.60
2022-11-14T06:56:36.671Z,5.60
2022-11-14T06:59:04.640Z,5.60
2022-11-14T07:01:32.617Z,5.60
2022-11-14T07:04:02.262Z,5.70
2022-11-14T07:06:30.882Z,5.70
2022-11-14T07:08:59.900Z,5.70
2022-11-14T07:11:29.621Z,5.70
2022-11-14T07:14:01.349Z,5.70
2022-11-14T07:16:31.331Z,5.80
2022-11-14T07:19:00.129Z,5.80
2022-11-14T07:21:29.693Z,5.80
2022-11-14T07:23:57.958Z,5.90
2022-11-14T07:26:25.990Z,6.00
2022-11-14T07:28:59.252Z,6.00
2022-11-14T07:31:31.647Z,6.00
2022-11-14T07:33:59.664Z,6.00
2022-11-14T07:36:27.702Z,6.10
2022-11-14T07:38:55.904Z,6.10
2022-11-14T07:41:23.915Z,6.10
2022-11-14T07:43:51.975Z,6.20
2022-11-14T07:46:19.980Z,6.20
2022-11-14T07:48:49.305Z,6.30
2022-11-14T07:51:19.604Z,6.40
2022-11-14T07:53:47.740Z,6.40
2022-11-14T07:56:17.068Z,6.50
2022-11-14T07:58:45.088Z,6.60
2022-11-14T08:01:14.478Z,6.80
2022-11-14T08:03:45.986Z,6.90
2022-11-14T08:06:16.960Z,7.00
2022-11-14T08:08:44.964Z,7.10
2022-11-14T08:11:15.032Z,7.10
2022-11-14T08:13:47.811Z,7.30
2022-11-14T08:16:15.794Z,7.30
2022-11-14T08:18:43.771Z,7.40
2022-11-14T08:21:11.783Z,7.50
2022-11-14T08:23:41.204Z,7.60
2022-11-14T08:26:09.200Z,7.60
2022-11-14T08:28:37.240Z,7.70
2022-11-14T08:31:06.175Z,7.70
2022-11-14T08:33:34.229Z,7.70
2022-11-14T08:36:02.965Z,7.80
2022-11-14T08:38:32.873Z,7.80
2022-11-14T08:41:03.054Z,7.90
2022-11-14T08:43:31.367Z,8.00
2022-11-14T08:46:01.743Z,8.10
2022-11-14T08:48:30.900Z,8.10
2022-11-14T08:50:59.456Z,8.30
2022-11-14T08:53:27.434Z,8.30
2022-11-14T08:55:55.440Z,8.30
2022-11-14T08:58:24.933Z,8.40
2022-11-14T09:00:52.757Z,8.50
2022-11-14T09:03:20.857Z,8.50
2022-11-14T09:05:52.687Z,8.50
2022-11-14T09:08:21.042Z,8.50
2022-11-14T09:10:49.233Z,8.60
2022-11-14T09:13:17.290Z,8.60
2022-11-14T09:15:46.780Z,8.60
2022-11-14T09:18:15.227Z,8.60
2022-11-14T09:20:43.247Z,8.60
2022-11-14T09:23:11.671Z,8.70
2022-11-14T09:25:39.666Z,8.70
2022-11-14T09:28:08.953Z,8.80
2022-11-14T09:30:37.943Z,8.80
2022-11-14T09:33:11.635Z,9.00
2022-11-14T09:35:40.143Z,9.00
2022-11-14T09:38:09.749Z,9.10
2022-11-14T09:40:42.454Z,9.20
2022-11-14T09:43:23.829Z,9.30
2022-11-14T09:45:53.655Z,9.40
2022-11-14T09:48:27.400Z,9.60
2022-11-14T09:51:08.131Z,9.90
2022-11-14T09:53:44.001Z,10.10
2022-11-14T09:56:14.448Z,10.30
2022-11-14T09:58:43.088Z,10.50
2022-11-14T10:01:18.876Z,10.70
2022-11-14T10:03:54.773Z,11.00
2022-11-14T10:06:29.076Z,11.20
2022-11-14T10:09:30.577Z,11.60
2022-11-14T10:12:06.545Z,11.80
2022-11-14T10:14:51.928Z,12.10
2022-11-14T10:17:37.167Z,12.40
2022-11-14T10:20:18.357Z,12.60
2022-11-14T10:23:12.102Z,13.00
2022-11-14T10:25:49.972Z,13.40
2022-11-14T10:28:43.414Z,14.20
2022-11-14T10:31:27.792Z,15.00
2022-11-14T10:34:02.051Z,16.20
2022-11-14T10:36:48.223Z,17.70
2022-11-14T10:39:21.296Z,18.80
2022-11-14T10:41:59.799Z,19.90
2022-11-14T10:44:37.934Z,20.80
2022-11-14T10:47:11.904Z,21.70
2022-11-14T10:49:40.988Z,22.30
2022-11-14T10:52:15.853Z,23.00
2022-11-14T10:54:48.526Z,23.30
2022-11-14T10:57:20.757Z,23.60
2022-11-14T10:59:48.996Z,23.70
2022-11-14T11:02:17.271Z,23.70
2022-11-14T11:04:46.346Z,24.20
2022-11-14T11:07:42.479Z,25.00
2022-11-14T11:10:40.000Z,25.20
2022-11-14T11:13:13.305Z,25.80
2022-11-14T11:15:42.724Z,25.90
2022-11-14T11:18:28.994Z,26.10
2022-11-14T11:21:07.987Z,26.20
2022-11-14T11:23:45.198Z,26.20
2022-11-14T11:26:19.728Z,26.50
2022-11-14T11:29:04.040Z,26.20
2022-11-14T11:31:51.473Z,26.40
2022-11-14T11:34:24.970Z,26.50
2022-11-14T11:36:58.537Z,26.30
2022-11-14T11:39:30.878Z,26.50
2022-11-14T11:42:09.400Z,26.50
2022-11-14T11:44:44.582Z,26.70
2022-11-14T11:47:17.130Z,26.70
2022-11-14T11:49:52.901Z,26.90
2022-11-14T11:52:28.931Z,27.00
2022-11-14T11:55:04.528Z,26.90
2022-11-14T11:57:36.251Z,26.90
2022-11-14T12:00:08.503Z,27.40
2022-11-14T12:02:43.490Z,27.40
2022-11-14T12:05:17.594Z,27.20
2022-11-14T12:07:52.544Z,27.30
2022-11-14T12:10:25.984Z,27.20
2022-11-14T12:13:24.099Z,27.00
2022-11-14T12:16:07.694Z,26.90
2022-11-14T12:19:00.756Z,26.80
2022-11-14T12:21:36.687Z,26.60
2022-11-14T12:24:25.203Z,26.50
2022-11-14T12:27:12.868Z,26.10
2022-11-14T12:29:56.921Z,26.20
2022-11-14T12:32:32.950Z,26.20
2022-11-14T12:35:04.570Z,26.10
2022-11-14T12:37:35.756Z,25.70
2022-11-14T12:40:07.116Z,25.70
2022-11-14T12:42:37.070Z,25.70
2022-11-14T12:45:05.552Z,25.80
2022-11-14T12:47:33.556Z,26.10
2022-11-14T12:50:27.245Z,26.40
2022-11-14T12:52:55.435Z,26.50
2022-11-14T12:55:54.746Z,27.00
2022-11-14T12:58:36.851Z,26.90
2022-11-14T13:01:21.605Z,26.70
2022-11-14T13:04:02.869Z,26.70
2022-11-14T13:06:39.373Z,26.90
2022-11-14T13:09:28.693Z,26.90
2022-11-14T13:12:14.531Z,27.10
2022-11-14T13:15:15.153Z,27.20
2022-11-14T13:18:01.050Z,27.10
2022-11-14T13:20:49.439Z,27.20
2022-11-14T13:23:56.694Z,26.90
2022-11-14T13:26:38.600Z,26.60
2022-11-14T13:29:06.693Z,26.40
2022-11-14T13:31:48.428Z,26.00
2022-11-14T13:34:41.258Z,25.70
2022-11-14T13:37:23.844Z,25.10
2022-11-14T13:40:00.875Z,24.80
2022-11-14T13:42:42.304Z,24.50
2022-11-14T13:45:49.980Z,24.40
2022-11-14T13:48:47.633Z,24.40
2022-11-14T13:54:17.632Z,23.40
2022-11-14T13:57:00.850Z,22.60
2022-11-14T13:59:55.235Z,21.60
2022-11-14T14:03:03.877Z,20.70
2022-11-14T14:05:49.527Z,19.90
2022-11-14T14:08:33.714Z,19.20
2022-11-14T14:11:19.189Z,18.60
2022-11-14T14:13:56.293Z,18.20
2022-11-14T14:16:34.043Z,18.00
2022-11-14T14:19:12.908Z,17.60
2022-11-14T14:21:49.936Z,17.10
2022-11-14T14:24:36.855Z,16.80
2022-11-14T14:27:15.235Z,16.30
2022-11-14T14:29:51.943Z,15.70
2022-11-14T14:32:21.143Z,15.20
2022-11-14T14:34:49.147Z,14.60
2022-11-14T14:37:20.984Z,14.20
2022-11-14T14:40:00.086Z,13.80
2022-11-14T14:42:34.956Z,13.40
2022-11-14T14:45:04.724Z,13.10
2022-11-14T14:47:35.154Z,12.70
2022-11-14T14:50:05.317Z,12.40
2022-11-14T14:52:37.874Z,12.10
2022-11-14T14:55:08.799Z,11.90
2022-11-14T14:57:36.849Z,11.70
2022-11-14T15:00:08.429Z,11.50
2022-11-14T15:02:37.302Z,11.40
2022-11-14T15:05:06.302Z,11.20
2022-11-14T15:07:36.942Z,11.00
2022-11-14T15:10:07.748Z,10.80
2022-11-14T15:12:36.732Z,10.60
2022-11-14T15:15:05.754Z,10.50
2022-11-14T15:17:36.009Z,10.30
2022-11-14T15:20:04.656Z,10.10
2022-11-14T15:22:33.640Z,10.00
2022-11-14T15:25:20.486Z,9.80
2022-11-14T15:27:54.272Z,9.60
2022-11-14T15:30:25.802Z,9.50
2022-11-14T15:32:55.405Z,9.40
2022-11-14T15:35:28.305Z,9.30
2022-11-14T15:41:18.004Z,9.10
2022-11-14T15:43:50.724Z,8.90
2022-11-14T15:46:40.435Z,8.90
2022-11-14T15:49:10.594Z,8.70
2022-11-14T15:51:43.185Z,8.70
2022-11-14T15:54:29.962Z,8.60
2022-11-14T15:57:01.609Z,8.60
2022-11-14T15:59:31.458Z,8.60
2022-11-14T16:02:05.429Z,8.40
2022-11-14T16:04:36.793Z,8.40
2022-11-14T16:07:05.341Z,8.30
2022-11-14T16:09:33.391Z,8.30
2022-11-14T16:12:02.741Z,8.30
2022-11-14T16:14:30.729Z,8.20
2022-11-14T16:16:58.684Z,8.20
2022-11-14T16:19:26.745Z,8.10
2022-11-14T16:21:54.786Z,8.10
2022-11-14T16:24:24.216Z,8.10
2022-11-14T16:26:52.362Z,8.00
2022-11-14T16:29:21.703Z,8.00
2022-11-14T16:31:51.610Z,7.90
2022-11-14T16:34:21.425Z,7.80
2022-11-14T16:36:51.534Z,7.80
2022-11-14T16:39:19.511Z,7.80
2022-11-14T16:41:47.483Z,7.80
2022-11-14T16:44:17.541Z,7.70
2022-11-14T16:46:47.339Z,7.70
2022-11-14T16:49:16.262Z,7.60
2022-11-14T16:51:49.629Z,7.50
2022-11-14T16:54:19.306Z,7.50
2022-11-14T16:56:47.536Z,7.50
2022-11-14T16:59:15.561Z,7.50
2022-11-14T17:01:43.714Z,7.40
2022-11-14T17:04:13.160Z,7.30
2022-11-14T17:06:41.170Z,7.30
2022-11-14T17:09:09.446Z,7.20
2022-11-14T17:11:37.449Z,7.20
2022-11-14T17:14:05.497Z,7.10
2022-11-14T17:16:33.548Z,7.00
2022-11-14T17:19:01.659Z,6.90
2022-11-14T17:21:31.368Z,6.80
2022-11-14T17:24:02.548Z,6.80
2022-11-14T17:26:30.687Z,6.70
2022-11-14T17:28:58.937Z,6.70
2022-11-14T17:31:27.011Z,6.70
2022-11-14T17:33:56.622Z,6.70
2022-11-14T17:36:25.240Z,6.70
2022-11-14T17:38:54.576Z,6.60
2022-11-14T17:41:22.947Z,6.60
2022-11-14T17:43:54.530Z,6.60
2022-11-14T17:46:22.623Z,6.60
2022-11-14T17:48:51.045Z,6.50
2022-11-14T17:51:18.990Z,6.50
2022-11-14T17:53:46.978Z,6.50
2022-11-14T17:56:17.673Z,6.50
2022-11-14T17:58:46.274Z,6.50
2022-11-14T18:01:16.321Z,6.50
2022-11-14T18:03:44.421Z,6.40
2022-11-14T18:06:13.693Z,6.40
2022-11-14T18:08:42.128Z,6.40
2022-11-14T18:11:12.810Z,6.40
2022-11-14T18:13:42.512Z,6.30
2022-11-14T18:16:13.804Z,6.30
2022-11-14T18:18:42.017Z,6.30
2022-11-14T18:21:11.402Z,6.20
2022-11-14T18:23:39.671Z,6.20
2022-11-14T18:26:11.764Z,6.20
2022-11-14T18:28:41.752Z,6.20
2022-11-14T18:31:11.189Z,6.20
2022-11-14T18:33:39.440Z,6.20
2022-11-14T18:36:11.258Z,6.20
2022-11-14T18:38:39.843Z,6.30
2022-11-14T18:41:10.427Z,6.30
2022-11-14T18:43:38.448Z,6.30
2022-11-14T18:46:09.951Z,6.30
2022-11-14T18:48:39.586Z,6.40
2022-11-14T18:51:11.097Z,6.40
2022-11-14T18:53:39.162Z,6.40
2022-11-14T18:56:08.468Z,6.40
2022-11-14T18:58:39.609Z,6.40
2022-11-14T19:01:14.022Z,6.50
2022-11-14T19:03:42.350Z,6.50
2022-11-14T19:06:12.506Z,6.50
2022-11-14T19:08:41.311Z,6.50
2022-11-14T19:11:31.763Z,6.50
2022-11-14T19:14:02.933Z,6.50
2022-11-14T19:16:32.312Z,6.50
2022-11-14T19:19:01.022Z,6.50
2022-11-14T19:21:29.780Z,6.60
2022-11-14T19:23:59.451Z,6.60
2022-11-14T19:26:28.294Z,6.60
2022-11-14T19:28:56.774Z,6.60
2022-11-14T19:31:25.133Z,6.60
2022-11-14T19:33:54.477Z,6.60
2022-11-14T19:36:58.931Z,6.60
2022-11-14T19:39:11.776Z,6.60
2022-11-14T19:41:39.799Z,6.60
2022-11-14T19:44:07.900Z,6.60
2022-11-14T19:46:36.767Z,6.60
2022-11-14T19:49:07.373Z,6.60
2022-11-14T19:51:35.536Z,6.60
2022-11-14T19:54:03.796Z,6.60
2022-11-14T19:56:31.778Z,6.60
2022-11-14T19:59:02.679Z,6.60
2022-11-14T20:01:30.755Z,6.60
2022-11-14T20:04:00.308Z,6.60
2022-11-14T20:06:31.083Z,6.60
2022-11-14T20:09:01.447Z,6.60
2022-11-14T20:11:30.860Z,6.50
2022-11-14T20:14:01.142Z,6.50
2022-11-14T20:16:31.440Z,6.50
2022-11-14T20:19:01.603Z,6.50
2022-11-14T20:21:32.851Z,6.50
2022-11-14T20:24:01.059Z,6.50
2022-11-14T20:26:29.140Z,6.50
2022-11-14T20:28:57.215Z,6.50
2022-11-14T20:31:27.546Z,6.50
2022-11-14T20:33:56.276Z,6.50
2022-11-14T20:36:29.460Z,6.40
2022-11-14T20:39:11.824Z,6.40
2022-11-14T20:41:39.947Z,6.40
2022-11-14T20:44:08.172Z,6.40
2022-11-14T20:46:36.445Z,6.40
2022-11-14T20:49:04.538Z,6.40
2022-11-14T20:51:33.383Z,6.40
2022-11-14T20:54:01.445Z,6.40
2022-11-14T20:56:30.968Z,6.30
2022-11-14T20:58:58.804Z,6.40
2022-11-14T21:01:26.910Z,6.30
2022-11-14T21:03:57.349Z,6.30
2022-11-14T21:06:25.344Z,6.20
2022-11-14T21:08:53.343Z,6.20
2022-11-14T21:11:22.387Z,6.20
2022-11-14T21:13:57.749Z,6.20
2022-11-14T21:16:28.376Z,6.20
2022-11-14T21:18:56.854Z,6.20
2022-11-14T21:21:27.317Z,6.20
2022-11-14T21:23:56.155Z,6.20
2022-11-14T21:26:25.938Z,6.20
2022-11-14T21:28:57.189Z,6.10
2022-11-14T21:31:27.506Z,6.20
2022-11-14T21:33:57.738Z,6.10
2022-11-14T21:39:16.405Z,6.10
2022-11-14T21:41:45.537Z,6.10
2022-11-14T21:44:16.471Z,6.10
2022-11-14T21:46:47.008Z,6.10
2022-11-14T21:49:15.328Z,6.00
2022-11-14T21:51:43.341Z,6.00
2022-11-14T21:54:11.384Z,6.00
2022-11-14T21:56:39.447Z,6.00
2022-11-14T21:59:15.609Z,6.00
2022-11-14T22:02:03.997Z,6.00
2022-11-14T22:04:32.403Z,6.00
2022-11-14T22:07:02.434Z,6.00
2022-11-14T22:09:31.157Z,6.00
2022-11-14T22:11:59.741Z,6.00
2022-11-14T22:14:30.306Z,6.00
2022-11-14T22:16:58.898Z,6.00
2022-11-14T22:19:26.877Z,6.00
2022-11-14T22:21:55.173Z,5.90
2022-11-14T22:24:23.602Z,5.90
2022-11-14T22:26:51.600Z,5.90
2022-11-14T22:29:19.590Z,5.90
2022-11-14T22:31:48.883Z,5.90
2022-11-14T22:34:16.887Z,5.90
2022-11-14T22:36:44.875Z,5.90
2022-11-14T22:39:12.811Z,5.90
2022-11-14T22:41:40.830Z,5.90
2022-11-14T22:44:08.894Z,5.90
2022-11-14T22:46:36.958Z,5.90
2022-11-14T22:49:06.342Z,5.90
2022-11-14T22:51:34.292Z,5.90
2022-11-14T22:54:02.279Z,5.80
2022-11-14T22:56:30.692Z,5.80
2022-11-14T22:59:00.531Z,5.80
2022-11-14T23:01:31.043Z,5.80
2022-11-14T23:04:00.862Z,5.70
2022-11-14T23:06:32.124Z,5.80
2022-11-14T23:09:00.274Z,5.80
2022-11-14T23:11:29.540Z,5.70
2022-11-14T23:13:59.233Z,5.70
2022-11-14T23:16:28.808Z,5.70
2022-11-14T23:18:57.375Z,5.70
2022-11-14T23:21:27.302Z,5.70
2022-11-14T23:23:57.874Z,5.60
2022-11-14T23:26:26.858Z,5.60
2022-11-14T23:28:55.666Z,5.60
2022-11-14T23:31:24.935Z,5.60
2022-11-14T23:33:54.931Z,5.60
2022-11-14T23:36:22.927Z,5.60
2022-11-14T23:38:53.112Z,5.60
2022-11-14T23:41:25.312Z,5.60
2022-11-14T23:43:53.461Z,5.60
2022-11-14T23:46:21.473Z,5.60
2022-11-14T23:48:50.706Z,5.60
2022-11-14T23:51:18.672Z,5.60
2022-11-14T23:53:46.798Z,5.60
2022-11-14T23:56:15.481Z,5.60
2022-11-14T23:58:44.948Z,5.60
